sensor_id;sensor_type;location;lat;lon;timestamp;pressure;altitude;pressure_sealevel;temperature;humidity
68456;BME280;55437;55.046;38.838;2023-07-13T00:01:29;99126.44;;;13.44;74.20
68456;BME280;55437;55.046;38.838;2023-07-13T00:03:56;99119.44;;;13.46;74.08
68456;BME280;55437;55.046;38.838;2023-07-13T00:06:22;99128.84;;;13.47;73.94
68456;BME280;55437;55.046;38.838;2023-07-13T00:08:48;99128.09;;;13.45;74.10
68456;BME280;55437;55.046;38.838;2023-07-13T00:11:16;99125.44;;;13.46;74.05
68456;BME280;55437;55.046;38.838;2023-07-13T00:13:43;99116.78;;;13.47;73.96
68456;BME280;55437;55.046;38.838;2023-07-13T00:16:10;99123.69;;;13.47;73.81
68456;BME280;55437;55.046;38.838;2023-07-13T00:18:37;99112.38;;;13.49;73.86
68456;BME280;55437;55.046;38.838;2023-07-13T00:21:03;99114.19;;;13.47;73.66
68456;BME280;55437;55.046;38.838;2023-07-13T00:23:34;99120.03;;;13.51;73.68
68456;BME280;55437;55.046;38.838;2023-07-13T00:26:02;99120.03;;;13.51;73.33
68456;BME280;55437;55.046;38.838;2023-07-13T00:28:29;99113.84;;;13.53;73.69
68456;BME280;55437;55.046;38.838;2023-07-13T00:30:55;99121.50;;;13.55;73.30
68456;BME280;55437;55.046;38.838;2023-07-13T00:33:21;99117.38;;;13.52;73.42
68456;BME280;55437;55.046;38.838;2023-07-13T00:35:49;99120.88;;;13.51;73.40
68456;BME280;55437;55.046;38.838;2023-07-13T00:38:15;99120.75;;;13.53;73.44
68456;BME280;55437;55.046;38.838;2023-07-13T00:40:41;99121.59;;;13.53;73.42
68456;BME280;55437;55.046;38.838;2023-07-13T00:43:17;99123.16;;;13.56;73.34
68456;BME280;55437;55.046;38.838;2023-07-13T00:48:33;99123.84;;;13.59;73.24
68456;BME280;55437;55.046;38.838;2023-07-13T00:51:00;99129.66;;;13.63;73.29
68456;BME280;55437;55.046;38.838;2023-07-13T00:53:28;99122.66;;;13.65;73.25
68456;BME280;55437;55.046;38.838;2023-07-13T00:55:57;99119.16;;;13.66;73.09
68456;BME280;55437;55.046;38.838;2023-07-13T00:58:25;99115.03;;;13.63;72.90
68456;BME280;55437;55.046;38.838;2023-07-13T01:00:51;99123.31;;;13.68;73.07
68456;BME280;55437;55.046;38.838;2023-07-13T01:03:18;99114.00;;;13.66;73.29
68456;BME280;55437;55.046;38.838;2023-07-13T01:05:47;99110.59;;;13.65;73.18
68456;BME280;55437;55.046;38.838;2023-07-13T01:08:13;99112.25;;;13.66;73.09
68456;BME280;55437;55.046;38.838;2023-07-13T01:10:40;99111.50;;;13.64;73.10
68456;BME280;55437;55.046;38.838;2023-07-13T01:13:07;99111.69;;;13.61;73.35
68456;BME280;55437;55.046;38.838;2023-07-13T01:15:45;99121.00;;;13.64;73.30
68456;BME280;55437;55.046;38.838;2023-07-13T01:18:31;99114.19;;;13.63;73.44
68456;BME280;55437;55.046;38.838;2023-07-13T01:20:59;99116.56;;;13.66;73.36
68456;BME280;55437;55.046;38.838;2023-07-13T01:23:26;99113.09;;;13.67;73.44
68456;BME280;55437;55.046;38.838;2023-07-13T01:25:55;99111.91;;;13.73;73.12
68456;BME280;55437;55.046;38.838;2023-07-13T01:28:23;99106.69;;;13.74;73.13
68456;BME280;55437;55.046;38.838;2023-07-13T01:30:54;99113.50;;;13.75;73.10
68456;BME280;55437;55.046;38.838;2023-07-13T01:33:20;99105.84;;;13.74;73.01
68456;BME280;55437;55.046;38.838;2023-07-13T01:35:47;99103.19;;;13.75;73.11
68456;BME280;55437;55.046;38.838;2023-07-13T01:38:19;99109.91;;;13.78;73.19
68456;BME280;55437;55.046;38.838;2023-07-13T01:40:45;99104.84;;;13.76;73.06
68456;BME280;55437;55.046;38.838;2023-07-13T01:43:12;99099.56;;;13.78;73.14
68456;BME280;55437;55.046;38.838;2023-07-13T01:45:38;99097.91;;;13.77;73.11
68456;BME280;55437;55.046;38.838;2023-07-13T01:48:05;99106.22;;;13.82;72.99
68456;BME280;55437;55.046;38.838;2023-07-13T01:50:33;99101.00;;;13.83;72.86
68456;BME280;55437;55.046;38.838;2023-07-13T01:52:59;99095.00;;;13.83;73.03
68456;BME280;55437;55.046;38.838;2023-07-13T01:55:29;99098.16;;;13.88;72.98
68456;BME280;55437;55.046;38.838;2023-07-13T01:57:56;99101.38;;;13.91;72.95
68456;BME280;55437;55.046;38.838;2023-07-13T02:00:22;99084.31;;;13.89;72.51
68456;BME280;55437;55.046;38.838;2023-07-13T02:02:48;99090.13;;;13.92;73.10
68456;BME280;55437;55.046;38.838;2023-07-13T02:05:14;99091.53;;;13.98;72.74
68456;BME280;55437;55.046;38.838;2023-07-13T02:07:42;99099.09;;;14.01;72.84
68456;BME280;55437;55.046;38.838;2023-07-13T02:10:10;99103.09;;;14.06;72.85
68456;BME280;55437;55.046;38.838;2023-07-13T02:12:37;99101.34;;;14.07;72.69
68456;BME280;55437;55.046;38.838;2023-07-13T02:15:04;99106.41;;;14.09;72.69
68456;BME280;55437;55.046;38.838;2023-07-13T02:17:35;99103.66;;;14.12;72.52
68456;BME280;55437;55.046;38.838;2023-07-13T02:20:03;99097.59;;;14.13;72.52
68456;BME280;55437;55.046;38.838;2023-07-13T02:22:33;99103.75;;;14.10;72.29
68456;BME280;55437;55.046;38.838;2023-07-13T02:24:59;99099.22;;;14.14;72.35
68456;BME280;55437;55.046;38.838;2023-07-13T02:27:25;99097.22;;;14.19;72.01
68456;BME280;55437;55.046;38.838;2023-07-13T02:29:52;99104.88;;;14.20;71.93
68456;BME280;55437;55.046;38.838;2023-07-13T02:32:19;99100.44;;;14.22;71.82
68456;BME280;55437;55.046;38.838;2023-07-13T02:34:45;99093.53;;;14.23;71.85
68456;BME280;55437;55.046;38.838;2023-07-13T02:37:11;99092.50;;;14.25;71.88
68456;BME280;55437;55.046;38.838;2023-07-13T02:39:37;99094.66;;;14.33;71.64
68456;BME280;55437;55.046;38.838;2023-07-13T02:42:04;99085.91;;;14.35;71.57
68456;BME280;55437;55.046;38.838;2023-07-13T02:44:29;99091.47;;;14.44;71.33
68456;BME280;55437;55.046;38.838;2023-07-13T02:46:55;99087.78;;;14.48;70.91
68456;BME280;55437;55.046;38.838;2023-07-13T02:49:22;99093.31;;;14.56;70.88
68456;BME280;55437;55.046;38.838;2023-07-13T02:51:47;99093.88;;;14.61;70.93
68456;BME280;55437;55.046;38.838;2023-07-13T02:54:13;99087.41;;;14.68;70.79
68456;BME280;55437;55.046;38.838;2023-07-13T02:56:41;99098.00;;;14.77;70.63
68456;BME280;55437;55.046;38.838;2023-07-13T02:59:07;99093.50;;;14.81;70.20
68456;BME280;55437;55.046;38.838;2023-07-13T03:01:34;99094.03;;;14.86;70.05
68456;BME280;55437;55.046;38.838;2023-07-13T03:04:02;99086.91;;;14.90;70.06
68456;BME280;55437;55.046;38.838;2023-07-13T03:06:31;99085.91;;;14.92;69.99
68456;BME280;55437;55.046;38.838;2023-07-13T03:08:59;99091.50;;;14.99;69.94
68456;BME280;55437;55.046;38.838;2023-07-13T03:11:27;99098.25;;;15.01;69.84
68456;BME280;55437;55.046;38.838;2023-07-13T03:14:01;99087.09;;;15.01;69.83
68456;BME280;55437;55.046;38.838;2023-07-13T03:16:31;99087.81;;;15.03;69.63
68456;BME280;55437;55.046;38.838;2023-07-13T03:18:58;99083.22;;;15.08;69.50
68456;BME280;55437;55.046;38.838;2023-07-13T03:21:24;99077.13;;;15.09;69.49
68456;BME280;55437;55.046;38.838;2023-07-13T03:23:50;99082.16;;;15.10;69.48
68456;BME280;55437;55.046;38.838;2023-07-13T03:26:35;99081.88;;;15.15;69.65
68456;BME280;55437;55.046;38.838;2023-07-13T03:29:02;99091.22;;;15.18;69.60
68456;BME280;55437;55.046;38.838;2023-07-13T03:31:29;99089.38;;;15.20;69.82
68456;BME280;55437;55.046;38.838;2023-07-13T03:33:56;99088.81;;;15.14;69.73
68456;BME280;55437;55.046;38.838;2023-07-13T03:36:26;99086.22;;;15.14;69.63
68456;BME280;55437;55.046;38.838;2023-07-13T03:39:00;99097.31;;;15.17;69.64
68456;BME280;55437;55.046;38.838;2023-07-13T03:41:35;99088.63;;;15.18;69.59
68456;BME280;55437;55.046;38.838;2023-07-13T03:44:01;99093.63;;;15.21;69.47
68456;BME280;55437;55.046;38.838;2023-07-13T03:46:28;99087.31;;;15.25;69.18
68456;BME280;55437;55.046;38.838;2023-07-13T03:48:57;99090.34;;;15.31;69.30
68456;BME280;55437;55.046;38.838;2023-07-13T03:51:22;99090.25;;;15.33;69.26
68456;BME280;55437;55.046;38.838;2023-07-13T03:53:50;99084.13;;;15.34;69.26
68456;BME280;55437;55.046;38.838;2023-07-13T03:56:18;99105.47;;;15.37;69.06
68456;BME280;55437;55.046;38.838;2023-07-13T03:58:46;99101.97;;;15.38;69.01
68456;BME280;55437;55.046;38.838;2023-07-13T04:01:18;99099.38;;;15.38;69.10
68456;BME280;55437;55.046;38.838;2023-07-13T04:03:45;99099.38;;;15.38;69.44
68456;BME280;55437;55.046;38.838;2023-07-13T04:06:21;99098.06;;;15.45;69.31
68456;BME280;55437;55.046;38.838;2023-07-13T04:08:54;99098.69;;;15.49;69.07
68456;BME280;55437;55.046;38.838;2023-07-13T04:11:22;99092.69;;;15.48;69.12
68456;BME280;55437;55.046;38.838;2023-07-13T04:13:49;99100.00;;;15.56;69.37
68456;BME280;55437;55.046;38.838;2023-07-13T04:16:17;99093.59;;;15.62;68.72
68456;BME280;55437;55.046;38.838;2023-07-13T04:18:45;99089.78;;;15.67;68.91
68456;BME280;55437;55.046;38.838;2023-07-13T04:21:12;99091.88;;;15.75;68.77
68456;BME280;55437;55.046;38.838;2023-07-13T04:23:38;99097.59;;;15.80;68.64
68456;BME280;55437;55.046;38.838;2023-07-13T04:26:06;99096.44;;;15.84;68.62
68456;BME280;55437;55.046;38.838;2023-07-13T04:28:32;99097.91;;;15.88;68.69
68456;BME280;55437;55.046;38.838;2023-07-13T04:30:59;99093.47;;;15.90;68.50
68456;BME280;55437;55.046;38.838;2023-07-13T04:33:26;99096.88;;;15.91;68.58
68456;BME280;55437;55.046;38.838;2023-07-13T04:35:54;99091.63;;;15.92;68.19
68456;BME280;55437;55.046;38.838;2023-07-13T04:38:26;99095.75;;;15.95;68.02
68456;BME280;55437;55.046;38.838;2023-07-13T04:40:59;99088.50;;;16.00;67.86
68456;BME280;55437;55.046;38.838;2023-07-13T04:43:27;99097.53;;;16.07;68.04
68456;BME280;55437;55.046;38.838;2023-07-13T04:45:53;99086.25;;;16.08;67.71
68456;BME280;55437;55.046;38.838;2023-07-13T04:48:21;99095.06;;;16.05;67.65
68456;BME280;55437;55.046;38.838;2023-07-13T04:50:47;99088.31;;;16.03;67.44
68456;BME280;55437;55.046;38.838;2023-07-13T04:53:14;99088.13;;;16.06;67.34
68456;BME280;55437;55.046;38.838;2023-07-13T04:55:40;99085.31;;;16.09;67.59
68456;BME280;55437;55.046;38.838;2023-07-13T04:58:07;99084.56;;;16.07;67.55
68456;BME280;55437;55.046;38.838;2023-07-13T05:00:33;99094.34;;;16.16;67.47
68456;BME280;55437;55.046;38.838;2023-07-13T05:02:59;99083.38;;;16.25;67.09
68456;BME280;55437;55.046;38.838;2023-07-13T05:05:25;99088.44;;;16.39;66.71
68456;BME280;55437;55.046;38.838;2023-07-13T05:07:53;99077.75;;;16.56;66.30
68456;BME280;55437;55.046;38.838;2023-07-13T05:10:19;99092.09;;;16.75;65.98
68456;BME280;55437;55.046;38.838;2023-07-13T05:12:46;99081.69;;;16.87;66.08
68456;BME280;55437;55.046;38.838;2023-07-13T05:15:12;99090.28;;;17.01;65.84
68456;BME280;55437;55.046;38.838;2023-07-13T05:17:39;99093.78;;;17.12;65.37
68456;BME280;55437;55.046;38.838;2023-07-13T05:20:08;99093.13;;;17.21;65.16
68456;BME280;55437;55.046;38.838;2023-07-13T05:22:52;99088.53;;;17.25;64.74
68456;BME280;55437;55.046;38.838;2023-07-13T05:25:18;99091.41;;;17.33;64.49
68456;BME280;55437;55.046;38.838;2023-07-13T05:27:45;99084.97;;;17.39;64.31
68456;BME280;55437;55.046;38.838;2023-07-13T05:30:31;99083.00;;;17.53;64.36
68456;BME280;55437;55.046;38.838;2023-07-13T05:32:56;99085.56;;;17.66;64.13
68456;BME280;55437;55.046;38.838;2023-07-13T05:35:22;99083.03;;;17.77;63.89
68456;BME280;55437;55.046;38.838;2023-07-13T05:37:48;99095.34;;;17.86;63.82
68456;BME280;55437;55.046;38.838;2023-07-13T05:40:14;99103.19;;;17.97;63.51
68456;BME280;55437;55.046;38.838;2023-07-13T05:42:40;99104.03;;;18.09;63.22
68456;BME280;55437;55.046;38.838;2023-07-13T05:45:06;99106.28;;;18.14;62.96
68456;BME280;55437;55.046;38.838;2023-07-13T05:47:33;99105.13;;;18.18;63.05
68456;BME280;55437;55.046;38.838;2023-07-13T05:49:58;99098.28;;;18.28;62.57
68456;BME280;55437;55.046;38.838;2023-07-13T05:52:24;99089.22;;;18.45;62.17
68456;BME280;55437;55.046;38.838;2023-07-13T05:54:52;99091.81;;;18.56;61.75
68456;BME280;55437;55.046;38.838;2023-07-13T05:57:18;99096.34;;;18.65;61.19
68456;BME280;55437;55.046;38.838;2023-07-13T05:59:47;99106.50;;;18.68;60.97
68456;BME280;55437;55.046;38.838;2023-07-13T06:02:13;99100.72;;;18.76;60.73
68456;BME280;55437;55.046;38.838;2023-07-13T06:04:39;99105.47;;;18.70;60.63
68456;BME280;55437;55.046;38.838;2023-07-13T06:07:05;99100.94;;;18.73;60.69
68456;BME280;55437;55.046;38.838;2023-07-13T06:09:31;99093.28;;;18.82;60.40
68456;BME280;55437;55.046;38.838;2023-07-13T06:11:57;99097.53;;;18.83;60.08
68456;BME280;55437;55.046;38.838;2023-07-13T06:14:22;99101.53;;;18.87;60.04
68456;BME280;55437;55.046;38.838;2023-07-13T06:16:48;99093.00;;;18.96;60.06
68456;BME280;55437;55.046;38.838;2023-07-13T06:19:14;99095.97;;;19.03;59.68
68456;BME280;55437;55.046;38.838;2023-07-13T06:21:40;99092.53;;;19.02;59.69
68456;BME280;55437;55.046;38.838;2023-07-13T06:24:06;99096.22;;;19.00;59.91
68456;BME280;55437;55.046;38.838;2023-07-13T06:26:31;99097.16;;;18.88;59.68
68456;BME280;55437;55.046;38.838;2023-07-13T06:28:57;99089.38;;;18.77;60.11
68456;BME280;55437;55.046;38.838;2023-07-13T06:31:23;99091.38;;;18.73;60.14
68456;BME280;55437;55.046;38.838;2023-07-13T06:33:49;99094.94;;;18.83;60.05
68456;BME280;55437;55.046;38.838;2023-07-13T06:36:15;99096.22;;;18.89;60.15
68456;BME280;55437;55.046;38.838;2023-07-13T06:38:41;99090.06;;;19.01;59.87
68456;BME280;55437;55.046;38.838;2023-07-13T06:41:07;99088.63;;;19.08;59.31
68456;BME280;55437;55.046;38.838;2023-07-13T06:43:33;99099.41;;;19.03;59.21
68456;BME280;55437;55.046;38.838;2023-07-13T06:46:00;99098.94;;;18.98;59.56
68456;BME280;55437;55.046;38.838;2023-07-13T06:48:27;99095.38;;;18.99;59.49
68456;BME280;55437;55.046;38.838;2023-07-13T06:50:54;99102.34;;;18.99;59.19
68456;BME280;55437;55.046;38.838;2023-07-13T06:53:21;99111.59;;;19.03;59.10
68456;BME280;55437;55.046;38.838;2023-07-13T06:55:48;99100.94;;;19.06;59.06
68456;BME280;55437;55.046;38.838;2023-07-13T06:58:16;99088.63;;;19.19;59.17
68456;BME280;55437;55.046;38.838;2023-07-13T07:00:45;99089.16;;;19.34;58.94
68456;BME280;55437;55.046;38.838;2023-07-13T07:03:11;99093.75;;;19.53;58.97
68456;BME280;55437;55.046;38.838;2023-07-13T07:05:37;99089.41;;;19.74;58.91
68456;BME280;55437;55.046;38.838;2023-07-13T07:08:03;99084.22;;;19.95;58.35
68456;BME280;55437;55.046;38.838;2023-07-13T07:10:30;99077.88;;;20.08;58.19
68456;BME280;55437;55.046;38.838;2023-07-13T07:12:57;99078.00;;;20.28;57.64
68456;BME280;55437;55.046;38.838;2023-07-13T07:15:23;99079.84;;;20.37;56.99
68456;BME280;55437;55.046;38.838;2023-07-13T07:17:51;99082.06;;;20.41;56.80
68456;BME280;55437;55.046;38.838;2023-07-13T07:20:17;99082.13;;;20.51;56.27
68456;BME280;55437;55.046;38.838;2023-07-13T07:22:42;99087.97;;;20.64;55.87
68456;BME280;55437;55.046;38.838;2023-07-13T07:25:08;99086.63;;;20.79;56.15
68456;BME280;55437;55.046;38.838;2023-07-13T07:27:34;99081.50;;;20.99;56.00
68456;BME280;55437;55.046;38.838;2023-07-13T07:30:00;99081.25;;;21.11;55.66
68456;BME280;55437;55.046;38.838;2023-07-13T07:32:30;99088.94;;;21.13;55.36
68456;BME280;55437;55.046;38.838;2023-07-13T07:34:57;99090.56;;;21.04;55.67
68456;BME280;55437;55.046;38.838;2023-07-13T07:37:24;99099.19;;;20.95;55.50
68456;BME280;55437;55.046;38.838;2023-07-13T07:39:50;99095.97;;;20.82;55.88
68456;BME280;55437;55.046;38.838;2023-07-13T07:42:16;99107.34;;;20.71;55.81
68456;BME280;55437;55.046;38.838;2023-07-13T07:44:42;99097.69;;;20.62;55.89
68456;BME280;55437;55.046;38.838;2023-07-13T07:47:08;99098.78;;;20.60;55.87
68456;BME280;55437;55.046;38.838;2023-07-13T07:49:36;99096.16;;;20.60;56.04
68456;BME280;55437;55.046;38.838;2023-07-13T07:52:01;99098.66;;;20.61;56.34
68456;BME280;55437;55.046;38.838;2023-07-13T07:54:27;99093.91;;;20.45;56.79
68456;BME280;55437;55.046;38.838;2023-07-13T07:56:53;99098.00;;;20.38;57.20
68456;BME280;55437;55.046;38.838;2023-07-13T07:59:19;99092.78;;;20.38;57.36
68456;BME280;55437;55.046;38.838;2023-07-13T08:01:45;99098.00;;;20.38;57.19
68456;BME280;55437;55.046;38.838;2023-07-13T08:04:14;99100.72;;;20.37;57.37
68456;BME280;55437;55.046;38.838;2023-07-13T08:06:39;99104.28;;;20.36;57.28
68456;BME280;55437;55.046;38.838;2023-07-13T08:09:05;99112.31;;;20.33;57.23
68456;BME280;55437;55.046;38.838;2023-07-13T08:11:31;99114.50;;;20.28;57.28
68456;BME280;55437;55.046;38.838;2023-07-13T08:13:57;99104.56;;;20.22;57.30
68456;BME280;55437;55.046;38.838;2023-07-13T08:16:23;99104.69;;;20.20;57.75
68456;BME280;55437;55.046;38.838;2023-07-13T08:18:50;99105.03;;;20.27;58.25
68456;BME280;55437;55.046;38.838;2023-07-13T08:21:16;99108.69;;;20.24;58.09
68456;BME280;55437;55.046;38.838;2023-07-13T08:23:46;99115.69;;;20.24;57.92
68456;BME280;55437;55.046;38.838;2023-07-13T08:26:11;99105.53;;;20.21;58.17
68456;BME280;55437;55.046;38.838;2023-07-13T08:28:37;99108.25;;;20.19;57.91
68456;BME280;55437;55.046;38.838;2023-07-13T08:31:05;99102.34;;;20.17;57.80
68456;BME280;55437;55.046;38.838;2023-07-13T08:33:31;99114.09;;;20.11;57.84
68456;BME280;55437;55.046;38.838;2023-07-13T08:35:57;99109.72;;;20.12;57.76
68456;BME280;55437;55.046;38.838;2023-07-13T08:38:23;99099.59;;;20.19;57.96
68456;BME280;55437;55.046;38.838;2023-07-13T08:40:54;99099.28;;;20.33;58.08
68456;BME280;55437;55.046;38.838;2023-07-13T08:43:25;99103.25;;;20.48;57.51
68456;BME280;55437;55.046;38.838;2023-07-13T08:46:13;99106.84;;;20.57;57.59
68456;BME280;55437;55.046;38.838;2023-07-13T08:48:50;99108.25;;;20.61;57.41
68456;BME280;55437;55.046;38.838;2023-07-13T08:54:08;99100.06;;;20.44;57.80
68456;BME280;55437;55.046;38.838;2023-07-13T08:56:36;99108.28;;;20.40;57.87
68456;BME280;55437;55.046;38.838;2023-07-13T08:59:16;99119.13;;;20.24;57.54
68456;BME280;55437;55.046;38.838;2023-07-13T09:04:46;99134.50;;;20.06;58.99
68456;BME280;55437;55.046;38.838;2023-07-13T09:10:14;99134.59;;;19.84;59.38
68456;BME280;55437;55.046;38.838;2023-07-13T09:15:30;99102.06;;;19.35;60.88
68456;BME280;55437;55.046;38.838;2023-07-13T09:18:01;99104.81;;;19.12;62.55
68456;BME280;55437;55.046;38.838;2023-07-13T09:20:53;99117.94;;;19.10;63.33
68456;BME280;55437;55.046;38.838;2023-07-13T09:23:22;99111.09;;;19.09;63.85
68456;BME280;55437;55.046;38.838;2023-07-13T09:25:53;99126.69;;;19.09;64.54
68456;BME280;55437;55.046;38.838;2023-07-13T09:28:28;99122.44;;;19.08;65.20
68456;BME280;55437;55.046;38.838;2023-07-13T09:31:03;99116.56;;;19.06;65.16
68456;BME280;55437;55.046;38.838;2023-07-13T09:33:31;99131.47;;;19.04;65.42
68456;BME280;55437;55.046;38.838;2023-07-13T09:35:58;99133.47;;;19.00;65.93
68456;BME280;55437;55.046;38.838;2023-07-13T09:38:27;99117.25;;;18.97;66.23
68456;BME280;55437;55.046;38.838;2023-07-13T09:41:28;99120.47;;;18.89;65.99
68456;BME280;55437;55.046;38.838;2023-07-13T09:44:38;99119.53;;;18.79;66.96
68456;BME280;55437;55.046;38.838;2023-07-13T09:47:22;99117.53;;;18.72;67.35
68456;BME280;55437;55.046;38.838;2023-07-13T09:49:58;99117.84;;;18.67;67.40
68456;BME280;55437;55.046;38.838;2023-07-13T09:52:26;99113.25;;;18.59;67.65
68456;BME280;55437;55.046;38.838;2023-07-13T09:54:54;99118.66;;;18.56;67.71
68456;BME280;55437;55.046;38.838;2023-07-13T09:57:27;99109.66;;;18.49;68.20
68456;BME280;55437;55.046;38.838;2023-07-13T09:59:54;99114.16;;;18.47;68.53
68456;BME280;55437;55.046;38.838;2023-07-13T10:02:33;99117.22;;;18.52;68.90
68456;BME280;55437;55.046;38.838;2023-07-13T10:05:10;99103.88;;;18.57;68.80
68456;BME280;55437;55.046;38.838;2023-07-13T10:07:43;99115.59;;;18.62;68.73
68456;BME280;55437;55.046;38.838;2023-07-13T10:10:28;99118.81;;;18.66;69.25
68456;BME280;55437;55.046;38.838;2023-07-13T10:12:57;99120.91;;;18.72;68.94
68456;BME280;55437;55.046;38.838;2023-07-13T10:15:24;99119.53;;;18.79;68.79
68456;BME280;55437;55.046;38.838;2023-07-13T10:17:53;99126.72;;;18.87;68.96
68456;BME280;55437;55.046;38.838;2023-07-13T10:20:21;99115.59;;;18.96;68.85
68456;BME280;55437;55.046;38.838;2023-07-13T10:23:04;99124.94;;;19.10;68.89
68456;BME280;55437;55.046;38.838;2023-07-13T10:25:34;99124.69;;;19.24;68.74
68456;BME280;55437;55.046;38.838;2023-07-13T10:28:11;99134.94;;;19.36;68.47
68456;BME280;55437;55.046;38.838;2023-07-13T10:30:43;99125.25;;;19.50;67.94
68456;BME280;55437;55.046;38.838;2023-07-13T10:33:13;99116.44;;;19.62;67.46
68456;BME280;55437;55.046;38.838;2023-07-13T10:35:42;99104.41;;;19.82;66.31
68456;BME280;55437;55.046;38.838;2023-07-13T10:38:21;99100.78;;;19.94;65.82
68456;BME280;55437;55.046;38.838;2023-07-13T10:40:56;99106.22;;;20.02;65.42
68456;BME280;55437;55.046;38.838;2023-07-13T10:43:27;99105.16;;;20.04;65.63
68456;BME280;55437;55.046;38.838;2023-07-13T10:45:56;99103.03;;;19.98;65.81
68456;BME280;55437;55.046;38.838;2023-07-13T10:48:24;99095.16;;;19.89;65.51
68456;BME280;55437;55.046;38.838;2023-07-13T10:50:52;99097.22;;;19.74;65.62
68456;BME280;55437;55.046;38.838;2023-07-13T10:53:20;99100.78;;;19.73;65.71
68456;BME280;55437;55.046;38.838;2023-07-13T10:58:22;99102.00;;;19.58;66.36
68456;BME280;55437;55.046;38.838;2023-07-13T11:00:56;99108.69;;;19.51;66.61
68456;BME280;55437;55.046;38.838;2023-07-13T11:03:25;99103.59;;;19.49;66.74
68456;BME280;55437;55.046;38.838;2023-07-13T11:06:12;99100.63;;;19.42;67.30
68456;BME280;55437;55.046;38.838;2023-07-13T11:21:20;99086.38;;;19.58;66.21
68456;BME280;55437;55.046;38.838;2023-07-13T11:24:01;99094.78;;;19.61;66.18
68456;BME280;55437;55.046;38.838;2023-07-13T11:26:42;99104.47;;;19.70;65.99
68456;BME280;55437;55.046;38.838;2023-07-13T11:32:00;99105.03;;;19.74;66.20
68456;BME280;55437;55.046;38.838;2023-07-13T11:34:33;99099.47;;;19.78;65.89
68456;BME280;55437;55.046;38.838;2023-07-13T11:37:01;99094.56;;;19.85;65.57
68456;BME280;55437;55.046;38.838;2023-07-13T11:39:34;99103.56;;;19.92;65.74
68456;BME280;55437;55.046;38.838;2023-07-13T11:42:05;99105.66;;;19.98;65.39
68456;BME280;55437;55.046;38.838;2023-07-13T11:44:32;99102.34;;;19.96;65.36
68456;BME280;55437;55.046;38.838;2023-07-13T11:47:10;99108.50;;;19.95;65.15
68456;BME280;55437;55.046;38.838;2023-07-13T11:49:48;99109.25;;;19.86;65.50
68456;BME280;55437;55.046;38.838;2023-07-13T11:52:17;99113.31;;;19.79;65.80
68456;BME280;55437;55.046;38.838;2023-07-13T11:54:48;99116.28;;;19.74;66.20
68456;BME280;55437;55.046;38.838;2023-07-13T11:57:37;99128.59;;;19.72;66.47
68456;BME280;55437;55.046;38.838;2023-07-13T12:00:16;99133.69;;;19.74;65.77
68456;BME280;55437;55.046;38.838;2023-07-13T12:02:45;99136.66;;;19.69;65.46
68456;BME280;55437;55.046;38.838;2023-07-13T12:05:16;99140.47;;;19.65;65.82
68456;BME280;55437;55.046;38.838;2023-07-13T12:07:46;99138.34;;;19.48;65.99
68456;BME280;55437;55.046;38.838;2023-07-13T12:10:20;99140.41;;;19.33;66.50
68456;BME280;55437;55.046;38.838;2023-07-13T12:12:52;99145.25;;;19.27;66.06
68456;BME280;55437;55.046;38.838;2023-07-13T12:15:19;99150.00;;;19.22;65.19
68456;BME280;55437;55.046;38.838;2023-07-13T12:17:45;99166.56;;;19.21;64.18
68456;BME280;55437;55.046;38.838;2023-07-13T12:20:24;99161.34;;;19.21;62.97
68456;BME280;55437;55.046;38.838;2023-07-13T12:22:51;99163.84;;;19.11;63.04
68456;BME280;55437;55.046;38.838;2023-07-13T12:25:18;99165.75;;;18.87;63.60
68456;BME280;55437;55.046;38.838;2023-07-13T12:27:51;99173.16;;;18.58;63.95
68456;BME280;55437;55.046;38.838;2023-07-13T12:30:32;99173.03;;;18.24;64.31
68456;BME280;55437;55.046;38.838;2023-07-13T12:33:28;99173.03;;;17.89;65.29
68456;BME280;55437;55.046;38.838;2023-07-13T12:35:55;99179.75;;;17.68;65.07
68456;BME280;55437;55.046;38.838;2023-07-13T12:38:24;99189.06;;;17.47;65.38
68456;BME280;55437;55.046;38.838;2023-07-13T12:40:51;99184.94;;;17.32;65.78
68456;BME280;55437;55.046;38.838;2023-07-13T12:43:20;99183.84;;;17.10;65.60
68456;BME280;55437;55.046;38.838;2023-07-13T12:45:56;99191.94;;;16.93;65.87
68456;BME280;55437;55.046;38.838;2023-07-13T12:48:22;99181.66;;;16.79;66.26
68456;BME280;55437;55.046;38.838;2023-07-13T12:50:50;99178.97;;;16.68;66.90
68456;BME280;55437;55.046;38.838;2023-07-13T12:53:22;99188.16;;;16.59;67.53
68456;BME280;55437;55.046;38.838;2023-07-13T12:55:57;99182.56;;;16.52;67.92
68456;BME280;55437;55.046;38.838;2023-07-13T12:59:01;99186.38;;;16.47;68.25
68456;BME280;55437;55.046;38.838;2023-07-13T13:01:27;99181.00;;;16.37;68.89
68456;BME280;55437;55.046;38.838;2023-07-13T13:03:54;99178.50;;;16.36;69.11
68456;BME280;55437;55.046;38.838;2023-07-13T13:08:51;99186.88;;;16.27;70.12
68456;BME280;55437;55.046;38.838;2023-07-13T13:11:18;99185.31;;;16.24;70.52
68456;BME280;55437;55.046;38.838;2023-07-13T13:13:46;99183.66;;;16.23;71.24
68456;BME280;55437;55.046;38.838;2023-07-13T13:16:32;99181.16;;;16.21;71.62
68456;BME280;55437;55.046;38.838;2023-07-13T13:19:10;99189.03;;;16.20;71.89
68456;BME280;55437;55.046;38.838;2023-07-13T13:21:40;99188.50;;;16.15;72.07
68456;BME280;55437;55.046;38.838;2023-07-13T13:24:11;99189.44;;;16.14;72.35
68456;BME280;55437;55.046;38.838;2023-07-13T13:26:40;99175.94;;;16.09;72.38
68456;BME280;55437;55.046;38.838;2023-07-13T13:29:12;99163.22;;;16.06;72.57
68456;BME280;55437;55.046;38.838;2023-07-13T13:31:39;99159.06;;;16.03;72.70
68456;BME280;55437;55.046;38.838;2023-07-13T13:34:09;99157.31;;;16.04;73.21
68456;BME280;55437;55.046;38.838;2023-07-13T13:36:35;99164.16;;;16.05;73.50